sensor_id;sensor_type;location;lat;lon;timestamp;P1;durP1;ratioP1;P2;durP2;ratioP2
56877;SDS011;42765;44.764;19.676;2022-08-21T00:00:55;3.40;;;2.60;;
56877;SDS011;42765;44.764;19.676;2022-08-21T00:03:22;3.35;;;2.40;;
56877;SDS011;42765;44.764;19.676;2022-08-21T00:05:48;3.88;;;2.67;;
56877;SDS011;42765;44.764;19.676;2022-08-21T00:08:15;4.75;;;2.88;;
56877;SDS011;42765;44.764;19.676;2022-08-21T00:10:42;4.53;;;3.08;;
56877;SDS011;42765;44.764;19.676;2022-08-21T00:13:09;4.90;;;3.20;;
56877;SDS011;42765;44.764;19.676;2022-08-21T00:15:36;4.50;;;2.80;;
56877;SDS011;42765;44.764;19.676;2022-08-21T00:18:04;3.50;;;2.72;;
56877;SDS011;42765;44.764;19.676;2022-08-21T00:20:30;3.25;;;2.67;;
56877;SDS011;42765;44.764;19.676;2022-08-21T00:22:57;3.15;;;2.50;;
56877;SDS011;42765;44.764;19.676;2022-08-21T00:25:23;2.63;;;2.35;;
56877;SDS011;42765;44.764;19.676;2022-08-21T00:27:50;2.95;;;2.47;;
56877;SDS011;42765;44.764;19.676;2022-08-21T00:30:17;4.68;;;2.55;;
56877;SDS011;42765;44.764;19.676;2022-08-21T00:32:44;2.85;;;2.38;;
56877;SDS011;42765;44.764;19.676;2022-08-21T00:35:12;2.85;;;2.65;;
56877;SDS011;42765;44.764;19.676;2022-08-21T00:37:39;4.57;;;2.63;;
56877;SDS011;42765;44.764;19.676;2022-08-21T00:40:08;5.35;;;2.97;;
56877;SDS011;42765;44.764;19.676;2022-08-21T00:42:35;5.65;;;2.53;;
56877;SDS011;42765;44.764;19.676;2022-08-21T00:45:02;5.57;;;2.90;;
56877;SDS011;42765;44.764;19.676;2022-08-21T00:47:29;2.83;;;2.63;;
56877;SDS011;42765;44.764;19.676;2022-08-21T00:49:55;5.68;;;2.30;;
56877;SDS011;42765;44.764;19.676;2022-08-21T00:52:22;3.70;;;2.78;;
56877;SDS011;42765;44.764;19.676;2022-08-21T00:54:50;3.17;;;2.63;;
56877;SDS011;42765;44.764;19.676;2022-08-21T00:57:23;3.55;;;3.25;;
56877;SDS011;42765;44.764;19.676;2022-08-21T00:59:53;4.80;;;3.72;;
56877;SDS011;42765;44.764;19.676;2022-08-21T01:02:21;5.90;;;3.35;;
56877;SDS011;42765;44.764;19.676;2022-08-21T01:04:48;5.90;;;4.25;;
56877;SDS011;42765;44.764;19.676;2022-08-21T01:07:14;6.45;;;3.75;;
56877;SDS011;42765;44.764;19.676;2022-08-21T01:09:40;3.78;;;3.13;;
56877;SDS011;42765;44.764;19.676;2022-08-21T01:12:07;5.60;;;4.22;;
56877;SDS011;42765;44.764;19.676;2022-08-21T01:14:33;11.93;;;5.72;;
56877;SDS011;42765;44.764;19.676;2022-08-21T01:17:00;8.57;;;5.32;;
56877;SDS011;42765;44.764;19.676;2022-08-21T01:19:28;10.57;;;5.82;;
56877;SDS011;42765;44.764;19.676;2022-08-21T01:21:55;12.07;;;6.55;;
56877;SDS011;42765;44.764;19.676;2022-08-21T01:24:22;8.35;;;5.53;;
56877;SDS011;42765;44.764;19.676;2022-08-21T01:26:48;7.55;;;5.30;;
56877;SDS011;42765;44.764;19.676;2022-08-21T01:32:02;8.45;;;5.90;;
56877;SDS011;42765;44.764;19.676;2022-08-21T01:34:29;10.02;;;5.95;;
56877;SDS011;42765;44.764;19.676;2022-08-21T01:36:55;8.48;;;6.15;;
56877;SDS011;42765;44.764;19.676;2022-08-21T01:39:21;7.50;;;6.70;;
56877;SDS011;42765;44.764;19.676;2022-08-21T01:41:47;8.25;;;6.50;;
56877;SDS011;42765;44.764;19.676;2022-08-21T01:44:14;9.88;;;6.32;;
56877;SDS011;42765;44.764;19.676;2022-08-21T01:46:40;9.45;;;6.68;;
56877;SDS011;42765;44.764;19.676;2022-08-21T01:49:06;10.32;;;5.95;;
56877;SDS011;42765;44.764;19.676;2022-08-21T01:51:32;10.60;;;6.43;;
56877;SDS011;42765;44.764;19.676;2022-08-21T01:53:59;11.65;;;6.25;;
56877;SDS011;42765;44.764;19.676;2022-08-21T01:56:25;8.20;;;6.55;;
56877;SDS011;42765;44.764;19.676;2022-08-21T01:58:53;7.28;;;5.72;;
56877;SDS011;42765;44.764;19.676;2022-08-21T02:01:19;11.13;;;5.80;;
56877;SDS011;42765;44.764;19.676;2022-08-21T02:03:45;9.02;;;5.85;;
56877;SDS011;42765;44.764;19.676;2022-08-21T02:06:12;10.25;;;6.18;;
56877;SDS011;42765;44.764;19.676;2022-08-21T02:08:39;7.72;;;5.95;;
56877;SDS011;42765;44.764;19.676;2022-08-21T02:11:05;9.02;;;5.70;;
56877;SDS011;42765;44.764;19.676;2022-08-21T02:13:32;8.50;;;5.35;;
56877;SDS011;42765;44.764;19.676;2022-08-21T05:19:21;8.82;;;4.00;;
56877;SDS011;42765;44.764;19.676;2022-08-21T05:21:47;7.75;;;3.75;;
